Asher, Oklahoma
Current Conditions -  °F | °C
As of 2:15 PM on Sunday 25 Jan 2015 (Local Time) from KADH Reporting Station
Clear Clear  
Wind Chill: 57°   Ceiling: Unl
Heat Index: 57°   Visibility: 10mi
Dew Point: 32°   Wind: 23mph
Humidity: 38%   Direction: 340°NNW
Pressure: 29.97"   Gusts: 30mph
Location:  34.99°N, 96.92°W
Report Text: KADH 252015Z AUTO 34020G26KT 300V360 10SM CLR 14/00 A2997 RMK AO2
Loading
Personal Weather Stations






























Interactive Weather Map New forecast layout! Learn more

10-Day Weather Forecast

Advertisements
Track Severe Weather on mobile